createdAt,value
2023-01-09T00:01:33.607Z,0.50
2023-01-09T00:04:15.908Z,0.52
2023-01-09T00:07:04.754Z,0.80
2023-01-09T00:09:46.585Z,2.05
2023-01-09T00:12:35.612Z,0.68
2023-01-09T00:15:24.698Z,1.13
2023-01-09T00:18:07.883Z,0.65
2023-01-09T00:20:56.627Z,0.60
2023-01-09T00:23:38.765Z,0.73
2023-01-09T00:26:28.599Z,1.35
2023-01-09T00:29:11.853Z,0.73
2023-01-09T00:32:00.598Z,0.80
2023-01-09T00:34:44.914Z,0.80
2023-01-09T00:37:33.609Z,0.73
2023-01-09T00:40:30.636Z,1.05
2023-01-09T00:43:12.582Z,0.82
2023-01-09T00:46:01.763Z,1.30
2023-01-09T00:48:45.666Z,1.77
2023-01-09T00:51:35.626Z,0.60
2023-01-09T00:54:19.847Z,0.68
2023-01-09T00:57:09.634Z,0.65
2023-01-09T00:59:53.002Z,0.80
2023-01-09T01:02:41.656Z,0.80
2023-01-09T01:05:47.653Z,0.68
2023-01-09T01:08:30.806Z,0.57
2023-01-09T01:11:19.626Z,0.60
2023-01-09T01:14:01.912Z,0.75
2023-01-09T01:16:49.682Z,0.52
2023-01-09T01:19:31.873Z,0.77
2023-01-09T01:22:20.638Z,1.10
2023-01-09T01:25:03.905Z,0.65
2023-01-09T01:27:52.650Z,0.95
2023-01-09T01:30:34.885Z,0.70
2023-01-09T01:33:22.659Z,0.50
2023-01-09T01:36:15.624Z,0.93
2023-01-09T01:39:03.858Z,0.70
2023-01-09T01:41:46.628Z,0.93
2023-01-09T01:45:04.571Z,0.70
2023-01-09T01:48:04.745Z,0.60
2023-01-09T01:50:49.554Z,1.00
2023-01-09T01:53:42.729Z,0.95
2023-01-09T01:56:28.180Z,0.77
2023-01-09T01:59:22.643Z,0.63
2023-01-09T02:02:11.711Z,0.50
2023-01-09T02:04:54.871Z,0.85
2023-01-09T02:07:42.635Z,0.65
2023-01-09T02:10:25.880Z,0.50
2023-01-09T02:13:14.692Z,0.57
2023-01-09T02:16:15.915Z,0.82
2023-01-09T02:19:10.662Z,0.90
2023-01-09T02:22:05.796Z,0.50
2023-01-09T02:25:08.745Z,0.38
2023-01-09T02:31:09.702Z,0.52
2023-01-09T02:34:01.816Z,0.63
2023-01-09T02:36:56.743Z,0.60
2023-01-09T02:39:45.879Z,0.85
2023-01-09T02:42:34.637Z,1.08
2023-01-09T02:45:16.901Z,0.80
2023-01-09T02:48:06.635Z,0.88
2023-01-09T02:51:01.672Z,0.95
2023-01-09T02:54:06.836Z,1.30
2023-01-09T02:57:29.684Z,0.95
2023-01-09T03:00:22.390Z,0.90
2023-01-09T03:03:20.797Z,1.20
2023-01-09T03:06:09.427Z,1.02
2023-01-09T03:09:02.676Z,1.23
2023-01-09T03:11:48.829Z,0.70
2023-01-09T03:14:40.717Z,0.88
2023-01-09T03:17:27.261Z,1.00
2023-01-09T03:20:20.723Z,0.98
2023-01-09T03:23:11.763Z,0.90
2023-01-09T03:25:53.872Z,0.47
2023-01-09T03:28:41.647Z,0.52
2023-01-09T03:31:23.863Z,0.98
2023-01-09T03:34:11.752Z,0.85
2023-01-09T03:36:54.815Z,0.70
2023-01-09T03:39:42.652Z,0.90
2023-01-09T03:42:24.889Z,0.68
2023-01-09T03:45:14.681Z,0.88
2023-01-09T03:47:58.495Z,1.48
2023-01-09T03:50:48.681Z,1.00
2023-01-09T03:53:33.939Z,1.08
2023-01-09T03:56:21.693Z,0.57
2023-01-09T03:59:10.681Z,1.40
2023-01-09T04:01:52.721Z,1.08
2023-01-09T04:04:41.686Z,1.30
2023-01-09T04:07:23.620Z,0.80
2023-01-09T04:10:13.673Z,1.77
2023-01-09T04:12:55.666Z,0.80
2023-01-09T04:15:44.696Z,0.80
2023-01-09T04:18:26.646Z,0.93
2023-01-09T04:21:15.669Z,1.05
2023-01-09T04:23:57.595Z,1.42
2023-01-09T04:26:47.673Z,0.93
2023-01-09T04:29:35.706Z,0.82
2023-01-09T04:32:17.950Z,0.93
2023-01-09T04:35:05.708Z,1.08
2023-01-09T04:37:47.964Z,1.23
2023-01-09T04:40:35.757Z,0.77
2023-01-09T04:43:19.124Z,1.08
2023-01-09T04:46:07.716Z,0.85
2023-01-09T04:48:49.953Z,1.27
2023-01-09T04:51:38.681Z,1.00
2023-01-09T04:54:20.931Z,0.82
2023-01-09T04:57:08.715Z,1.10
2023-01-09T04:59:58.672Z,1.55
2023-01-09T05:02:41.891Z,1.00
2023-01-09T05:05:30.705Z,1.10
2023-01-09T05:08:12.570Z,1.30
2023-01-09T05:11:01.691Z,1.17
2023-01-09T05:13:43.594Z,0.90
2023-01-09T05:16:34.743Z,1.00
2023-01-09T05:19:16.657Z,0.70
2023-01-09T05:22:05.704Z,1.17
2023-01-09T05:24:47.641Z,1.45
2023-01-09T05:27:36.741Z,12.15
2023-01-09T05:30:25.707Z,0.70
2023-01-09T05:33:08.873Z,0.80
2023-01-09T05:35:57.724Z,1.00
2023-01-09T05:38:39.885Z,1.23
2023-01-09T05:41:27.710Z,0.77
2023-01-09T05:44:09.951Z,1.13
2023-01-09T05:46:57.721Z,1.75
2023-01-09T05:49:40.874Z,1.30
2023-01-09T05:52:29.814Z,0.98
2023-01-09T05:55:19.723Z,0.82
2023-01-09T05:58:01.645Z,0.95
2023-01-09T06:00:50.837Z,9.77
2023-01-09T06:03:32.590Z,9.90
2023-01-09T06:06:22.780Z,1.70
2023-01-09T06:09:04.734Z,1.83
2023-01-09T06:11:53.736Z,1.95
2023-01-09T06:14:36.859Z,2.20
2023-01-09T06:17:25.814Z,1.40
2023-01-09T06:20:08.513Z,0.60
2023-01-09T06:22:58.716Z,0.90
2023-01-09T06:25:46.711Z,0.75
2023-01-09T06:28:28.972Z,0.80
2023-01-09T06:31:16.765Z,0.68
2023-01-09T06:33:58.895Z,0.75
2023-01-09T06:36:46.747Z,0.55
2023-01-09T06:39:29.900Z,0.95
2023-01-09T06:42:17.775Z,1.65
2023-01-09T06:44:59.922Z,0.70
2023-01-09T06:47:48.710Z,1.05
2023-01-09T06:50:30.884Z,0.73
2023-01-09T06:53:18.824Z,0.45
2023-01-09T06:56:08.750Z,1.25
2023-01-09T06:58:50.652Z,0.50
2023-01-09T07:01:40.116Z,1.00
2023-01-09T07:04:23.120Z,0.70
2023-01-09T07:07:11.806Z,0.98
2023-01-09T07:09:54.651Z,0.60
2023-01-09T07:12:44.740Z,0.90
2023-01-09T07:15:26.690Z,1.10
2023-01-09T07:18:16.736Z,0.50
2023-01-09T07:20:58.718Z,0.90
2023-01-09T07:23:47.718Z,0.70
2023-01-09T07:26:35.746Z,0.63
2023-01-09T07:29:18.927Z,0.70
2023-01-09T07:32:07.741Z,0.68
2023-01-09T07:34:51.529Z,1.00
2023-01-09T07:37:38.768Z,1.08
2023-01-09T07:40:27.063Z,0.80
2023-01-09T07:43:08.800Z,1.13
2023-01-09T07:45:52.058Z,1.17
2023-01-09T07:48:41.042Z,0.90
2023-01-09T07:51:35.743Z,1.20
2023-01-09T07:54:17.889Z,1.10
2023-01-09T07:57:06.795Z,1.10
2023-01-09T07:59:48.802Z,0.93
2023-01-09T08:02:38.817Z,1.17
2023-01-09T08:05:20.769Z,1.30
2023-01-09T08:08:09.741Z,1.42
2023-01-09T08:10:51.807Z,1.85
2023-01-09T08:13:40.740Z,0.80
2023-01-09T08:16:22.824Z,1.75
2023-01-09T08:19:12.744Z,1.20
2023-01-09T08:22:00.760Z,0.70
2023-01-09T08:24:42.993Z,0.75
2023-01-09T08:27:30.858Z,1.08
2023-01-09T08:30:14.066Z,0.80
2023-01-09T08:33:02.790Z,1.40
2023-01-09T08:35:46.031Z,1.15
2023-01-09T08:38:33.790Z,1.38
2023-01-09T08:41:39.645Z,1.63
2023-01-09T08:44:38.757Z,1.38
2023-01-09T08:47:30.763Z,0.85
2023-01-09T08:50:13.300Z,0.65
2023-01-09T08:53:02.863Z,0.80
2023-01-09T08:55:44.979Z,0.60
2023-01-09T08:58:32.773Z,0.43
2023-01-09T09:01:14.927Z,0.80
2023-01-09T09:04:02.838Z,0.30
2023-01-09T09:06:44.989Z,0.60
2023-01-09T09:09:34.859Z,0.40
2023-01-09T09:12:17.178Z,0.30
2023-01-09T09:15:19.822Z,0.40
2023-01-09T09:20:50.787Z,0.20
2023-01-09T09:23:32.972Z,0.40
2023-01-09T09:26:22.757Z,0.30
2023-01-09T09:29:05.042Z,0.90
2023-01-09T09:31:53.798Z,1.27
2023-01-09T09:34:36.031Z,1.25
2023-01-09T09:37:23.867Z,0.90
2023-01-09T09:40:20.769Z,0.60
2023-01-09T09:46:38.893Z,0.60
2023-01-09T09:49:27.361Z,0.60
2023-01-09T09:52:22.834Z,0.75
2023-01-09T09:55:16.006Z,0.50
2023-01-09T09:58:05.880Z,0.73
2023-01-09T10:00:55.777Z,0.40
2023-01-09T10:03:43.026Z,0.75
2023-01-09T10:06:36.798Z,0.30
2023-01-09T10:09:31.014Z,0.60
2023-01-09T10:12:32.776Z,1.33
2023-01-09T10:15:24.013Z,0.50
2023-01-09T10:18:25.775Z,0.40
2023-01-09T10:21:14.019Z,0.32
2023-01-09T10:24:30.794Z,0.40
2023-01-09T10:27:30.827Z,0.32
2023-01-09T10:30:30.106Z,0.43
2023-01-09T10:33:34.792Z,0.40
2023-01-09T10:36:40.485Z,0.40
2023-01-09T10:39:41.802Z,0.43
2023-01-09T10:42:32.057Z,0.30
2023-01-09T10:45:30.852Z,0.55
2023-01-09T10:48:20.987Z,0.50
2023-01-09T10:51:10.792Z,0.40
2023-01-09T10:53:55.434Z,0.60
2023-01-09T10:56:47.794Z,0.50
2023-01-09T10:59:37.883Z,0.40
2023-01-09T11:02:34.061Z,0.85
2023-01-09T11:05:29.589Z,0.73
2023-01-09T11:08:23.993Z,0.70
2023-01-09T11:11:12.796Z,0.68
2023-01-09T11:14:18.813Z,0.52
2023-01-09T11:17:03.324Z,0.60
2023-01-09T11:19:51.895Z,1.60
2023-01-09T11:22:47.463Z,0.85
2023-01-09T11:25:37.911Z,0.73
2023-01-09T11:28:26.817Z,0.82
2023-01-09T11:31:10.110Z,0.98
2023-01-09T11:33:58.853Z,0.95
2023-01-09T11:36:41.137Z,0.77
2023-01-09T11:39:33.860Z,0.95
2023-01-09T11:42:43.915Z,1.02
2023-01-09T11:45:37.858Z,1.25
2023-01-09T11:48:36.100Z,0.70
2023-01-09T11:51:27.838Z,0.82
2023-01-09T11:54:28.850Z,0.70
2023-01-09T11:57:13.594Z,1.00
2023-01-09T12:00:01.938Z,0.70
2023-01-09T12:03:03.569Z,1.23
2023-01-09T12:05:58.851Z,0.90
2023-01-09T12:08:55.783Z,1.33
2023-01-09T12:11:50.850Z,1.38
2023-01-09T12:14:47.849Z,1.05
2023-01-09T12:18:00.886Z,1.23
2023-01-09T12:20:55.125Z,1.40
2023-01-09T12:23:57.841Z,0.73
2023-01-09T12:26:45.196Z,1.40
2023-01-09T12:29:48.822Z,1.35
2023-01-09T12:32:44.042Z,1.40
2023-01-09T12:35:43.806Z,1.33
2023-01-09T12:38:45.928Z,1.10
2023-01-09T12:41:51.071Z,1.33
2023-01-09T12:45:06.845Z,1.58
2023-01-09T12:47:52.366Z,1.60
2023-01-09T12:51:05.833Z,1.77
2023-01-09T12:53:53.391Z,1.20
2023-01-09T12:56:46.895Z,1.30
2023-01-09T12:59:34.125Z,1.27
2023-01-09T13:02:33.915Z,1.67
2023-01-09T13:05:21.496Z,1.73
2023-01-09T13:08:14.860Z,1.92
2023-01-09T13:11:19.536Z,1.77
2023-01-09T13:14:08.047Z,1.20
2023-01-09T13:16:59.897Z,1.85
2023-01-09T13:19:46.261Z,1.85
2023-01-09T13:22:36.853Z,1.75
2023-01-09T13:25:35.158Z,2.15
2023-01-09T13:28:28.905Z,1.55
2023-01-09T13:31:52.956Z,1.65
2023-01-09T13:34:37.397Z,3.60
2023-01-09T13:37:36.865Z,2.08
2023-01-09T13:40:44.824Z,1.50
2023-01-09T13:43:32.910Z,1.20
2023-01-09T13:46:20.529Z,1.63
2023-01-09T13:49:08.939Z,1.67
2023-01-09T13:52:09.023Z,1.55
2023-01-09T13:55:42.902Z,2.60
2023-01-09T13:58:38.868Z,2.08
2023-01-09T14:01:43.629Z,2.25
2023-01-09T14:04:54.855Z,2.20
2023-01-09T14:07:37.220Z,1.63
2023-01-09T14:10:38.893Z,1.98
2023-01-09T14:13:25.211Z,2.28
2023-01-09T14:16:19.888Z,1.55
2023-01-09T14:19:14.842Z,1.90
2023-01-09T14:22:02.230Z,1.67
2023-01-09T14:24:53.869Z,1.85
2023-01-09T14:28:10.504Z,2.25
2023-01-09T14:31:33.952Z,2.28
2023-01-09T14:34:43.109Z,1.30
2023-01-09T14:37:33.382Z,1.65
2023-01-09T14:40:30.939Z,1.40
2023-01-09T14:43:24.558Z,1.58
2023-01-09T14:46:18.955Z,1.30
2023-01-09T14:49:08.492Z,1.75
2023-01-09T14:52:02.852Z,2.45
2023-01-09T14:54:45.684Z,3.83
2023-01-09T14:57:41.876Z,1.92
2023-01-09T15:00:24.813Z,1.48
2023-01-09T15:03:16.875Z,1.33
2023-01-09T15:06:02.177Z,1.45
2023-01-09T15:08:51.026Z,2.30
2023-01-09T15:11:40.964Z,1.83
2023-01-09T15:14:39.879Z,1.60
2023-01-09T15:17:31.876Z,1.15
2023-01-09T15:20:15.136Z,1.90
2023-01-09T15:23:06.874Z,1.00
2023-01-09T15:25:49.082Z,0.82
2023-01-09T15:28:39.876Z,1.20
2023-01-09T15:31:25.184Z,1.02
2023-01-09T15:34:13.907Z,1.23
2023-01-09T15:36:56.147Z,1.25
2023-01-09T15:39:45.897Z,1.23
2023-01-09T15:42:56.359Z,1.27
2023-01-09T15:45:41.892Z,1.08
2023-01-09T15:48:26.386Z,1.35
2023-01-09T15:51:19.875Z,1.50
2023-01-09T15:54:03.771Z,2.30
2023-01-09T15:56:53.991Z,1.52
2023-01-09T15:59:43.900Z,1.50
2023-01-09T16:02:46.830Z,1.55
2023-01-09T16:05:38.006Z,2.05
2023-01-09T16:08:45.968Z,1.77
2023-01-09T16:11:37.910Z,2.22
2023-01-09T16:14:27.544Z,2.92
2023-01-09T16:17:22.992Z,2.22
2023-01-09T16:20:06.161Z,2.13
2023-01-09T16:23:01.994Z,3.70
2023-01-09T16:25:44.110Z,2.90
2023-01-09T16:28:36.971Z,3.28
2023-01-09T16:31:28.285Z,3.53
2023-01-09T16:34:20.991Z,2.28
2023-01-09T16:37:03.978Z,2.35
2023-01-09T16:40:21.949Z,2.80
2023-01-09T16:43:17.981Z,2.30
2023-01-09T16:45:59.977Z,2.75
2023-01-09T16:48:49.877Z,3.00
2023-01-09T16:51:31.920Z,2.80
2023-01-09T16:54:20.917Z,2.78
2023-01-09T16:57:03.940Z,3.63
2023-01-09T16:59:52.907Z,2.83
2023-01-09T17:02:34.802Z,3.88
2023-01-09T17:05:24.999Z,2.33
2023-01-09T17:08:15.939Z,3.08
2023-01-09T17:11:04.997Z,3.70
2023-01-09T17:13:54.881Z,3.00
2023-01-09T17:16:38.201Z,3.40
2023-01-09T17:19:28.006Z,3.38
2023-01-09T17:22:11.038Z,3.53
2023-01-09T17:25:17.071Z,3.00
2023-01-09T17:28:16.807Z,2.85
2023-01-09T17:31:07.060Z,3.45
2023-01-09T17:33:50.259Z,2.72
2023-01-09T17:36:42.017Z,4.13
2023-01-09T17:39:35.970Z,4.45
2023-01-09T17:42:24.248Z,4.97
2023-01-09T17:45:05.962Z,4.30
2023-01-09T17:47:48.042Z,5.53
2023-01-09T17:50:40.073Z,3.58
2023-01-09T17:53:22.763Z,3.05
2023-01-09T17:56:13.006Z,4.00
2023-01-09T17:58:54.986Z,2.28
2023-01-09T18:01:44.095Z,2.95
2023-01-09T18:04:32.922Z,1.92
2023-01-09T18:07:15.109Z,2.05
2023-01-09T18:10:02.920Z,3.05
2023-01-09T18:12:46.139Z,1.70
2023-01-09T18:15:36.966Z,1.75
2023-01-09T18:18:20.022Z,2.08
2023-01-09T18:21:12.046Z,2.40
2023-01-09T18:23:57.029Z,2.70
2023-01-09T18:26:44.920Z,1.10
2023-01-09T18:29:33.418Z,1.40
2023-01-09T18:32:20.924Z,1.52
2023-01-09T18:35:09.988Z,1.52
2023-01-09T18:37:52.026Z,1.17
2023-01-09T18:40:44.006Z,1.33
2023-01-09T18:43:25.902Z,1.08
2023-01-09T18:46:20.029Z,2.13
2023-01-09T18:49:03.636Z,1.42
2023-01-09T18:51:51.958Z,1.70
2023-01-09T18:54:33.851Z,1.52
2023-01-09T18:57:24.973Z,2.20
2023-01-09T19:00:14.933Z,2.45
2023-01-09T19:03:01.212Z,2.15
2023-01-09T19:05:49.010Z,2.10
2023-01-09T19:08:31.215Z,2.75
2023-01-09T19:11:18.969Z,2.83
2023-01-09T19:14:01.196Z,2.72
2023-01-09T19:16:49.016Z,2.30
2023-01-09T19:19:32.132Z,1.98
2023-01-09T19:22:22.009Z,1.95
2023-01-09T19:25:10.987Z,2.80
2023-01-09T19:27:55.766Z,2.45
2023-01-09T19:30:43.994Z,1.60
2023-01-09T19:33:25.971Z,1.13
2023-01-09T19:36:15.951Z,1.45
2023-01-09T19:38:58.344Z,1.40
2023-01-09T19:41:46.945Z,1.10
2023-01-09T19:44:30.383Z,1.33
2023-01-09T19:47:20.981Z,1.85
2023-01-09T19:50:04.972Z,2.33
2023-01-09T19:52:55.036Z,1.65
2023-01-09T19:55:44.979Z,1.63
2023-01-09T19:58:27.972Z,10.77
2023-01-09T20:01:19.066Z,8.15
2023-01-09T20:04:05.011Z,6.00
2023-01-09T20:06:54.977Z,2.20
2023-01-09T20:09:38.399Z,2.33
2023-01-09T20:12:26.987Z,2.90
2023-01-09T20:15:14.704Z,2.35
2023-01-09T20:18:02.003Z,3.95
2023-01-09T20:20:50.954Z,3.88
2023-01-09T20:23:33.431Z,8.55
2023-01-09T20:26:24.010Z,2.83
2023-01-09T20:29:08.524Z,4.07
2023-01-09T20:31:56.995Z,3.65
2023-01-09T20:34:38.970Z,3.10
2023-01-09T20:37:28.020Z,2.78
2023-01-09T20:40:25.041Z,5.28
2023-01-09T20:43:16.956Z,4.38
2023-01-09T20:46:06.149Z,3.42
2023-01-09T20:48:48.267Z,3.90
2023-01-09T20:51:37.036Z,4.65
2023-01-09T20:54:21.181Z,5.10
2023-01-09T20:57:09.968Z,4.15
2023-01-09T20:59:53.326Z,5.75
2023-01-09T21:02:41.943Z,7.00
2023-01-09T21:05:23.932Z,4.10
2023-01-09T21:08:12.971Z,3.75
2023-01-09T21:11:04.003Z,3.83
2023-01-09T21:13:46.227Z,4.13
2023-01-09T21:16:36.019Z,5.13
2023-01-09T21:19:18.631Z,4.53
2023-01-09T21:22:06.964Z,3.85
2023-01-09T21:24:49.285Z,3.72
2023-01-09T21:27:39.064Z,3.95
2023-01-09T21:30:21.228Z,3.65
2023-01-09T21:33:10.985Z,4.53
2023-01-09T21:35:53.221Z,3.70
2023-01-09T21:38:41.996Z,3.50
2023-01-09T21:41:49.991Z,3.20
2023-01-09T21:44:49.767Z,3.75
2023-01-09T21:47:38.065Z,5.47
2023-01-09T21:50:21.589Z,3.75
2023-01-09T21:53:09.984Z,2.90
2023-01-09T21:55:53.463Z,3.15
2023-01-09T21:58:44.102Z,4.97
2023-01-09T22:01:25.944Z,3.17
2023-01-09T22:04:15.053Z,3.05
2023-01-09T22:06:58.599Z,3.72
2023-01-09T22:09:46.980Z,2.80
2023-01-09T22:12:42.117Z,2.78
2023-01-09T22:15:23.940Z,3.53
2023-01-09T22:18:12.999Z,3.35
2023-01-09T22:20:54.833Z,2.28
2023-01-09T22:23:44.993Z,2.88
2023-01-09T22:26:26.925Z,2.67
2023-01-09T22:29:16.043Z,2.80
2023-01-09T22:31:58.158Z,2.30
2023-01-09T22:34:47.066Z,2.58
2023-01-09T22:37:29.045Z,2.38
2023-01-09T22:40:19.979Z,2.00
2023-01-09T22:43:15.023Z,2.45
2023-01-09T22:46:01.258Z,2.25
2023-01-09T22:48:50.069Z,1.67
2023-01-09T22:51:33.712Z,1.65
2023-01-09T22:54:21.987Z,2.17
2023-01-09T22:57:05.504Z,2.20
2023-01-09T22:59:54.028Z,1.83
2023-01-09T23:02:36.339Z,2.30
2023-01-09T23:05:26.059Z,2.15
2023-01-09T23:08:15.015Z,2.00
2023-01-09T23:10:57.224Z,2.38
2023-01-09T23:13:47.043Z,2.58
2023-01-09T23:16:29.291Z,1.65
2023-01-09T23:19:18.979Z,2.50
2023-01-09T23:22:01.268Z,2.35
2023-01-09T23:24:49.127Z,1.58
2023-01-09T23:27:31.181Z,1.67
2023-01-09T23:30:22.109Z,3.20
2023-01-09T23:33:04.162Z,1.55
2023-01-09T23:35:46.104Z,1.63
2023-01-09T23:38:34.062Z,1.65
2023-01-09T23:41:49.005Z,2.45
2023-01-09T23:47:19.331Z,3.50
2023-01-09T23:50:07.034Z,2.95
2023-01-09T23:52:49.233Z,3.40
2023-01-09T23:55:38.032Z,3.63
2023-01-09T23:58:20.276Z,3.03
